Keysville, GA (30811)

7:30 PM EST on February 07, 2016 (GMT -0500)
Summerfield | | Change Station
CLOSE
Current Station
Personal Weather Station
Location: Grovetown, GA
Elevation: 531 ft
Nearby Weather Stations
Active Advisory: Flood Warning

Elev 531 ft 33.44 °N, 82.18 °W | Updated 30 seconds ago

Clear
Clear
41.0 °F
Feels Like 41 °F
N
0.0
Wind Variable Wind from WSW

Today
High -- | Low -- °F
--% Chance of Precip.
Yesterday
High -- | Low -- °F
Precip. -- in
Pressure 29.94 in
Visibility 8.0 miles
Clouds Clear
Windchill 41 °F
Dew Point 25 °F
Humidity 53%
Rainfall 0.00 in
Snow Depth Not available.
7:20 AM 6:06 PM
Waning Crescent, 0% visible
METAR KAGS 072353Z 26004KT 8SM CLR 08/M03 A2994 RMK AO2 SLP138 T00831028 10150 20083 55000
Pressure 29.94 in
Visibility 8.0 miles
Clouds Clear
Windchill 41 °F
Dew Point 25 °F
Humidity 53%
Rainfall 0.00 in
Snow Depth Not available.
7:20 AM 6:06 PM
Waning Crescent, 0% visible
METAR KAGS 072353Z 26004KT 8SM CLR 08/M03 A2994 RMK AO2 SLP138 T00831028 10150 20083 55000

10-Day Weather Forecast

Almanac

Astronomy

Feb. 07, 2016 Rise Set
Actual Time
Civil Twilight
Nautical Twilight
Astronomical Twilight
Moon
Length of Visible Light
Length of Day
Tomorrow will be .
, % of the Moon is Illuminated

Today's Extremes

State Highs State Lows

Community

WunderPhotos

Upload Photos

1,891,335 photos uploaded!

WunderBlog® & News

Nearby

Air Quality

  Air Quality AQ Index Pollutant
Not available.

Snow Depth

Station Depth Elevation

Earthquake Activity

City Distance Mag. Time & Date
Minimum magnitude displayed is 2.5.

Coastal Water Temperatures

Place Temperature

Stations

Nearby Weather Stations

Station Location Temp. Windchill Dew Point Humidity Wind Precip. Elev Updated Type
                   

Watches & Warnings

Flood Warning
Issued: 10:35 AM EST Feb. 7, 2016 – National Weather Service

The Flood Warning continues for
the Ogeechee river near Midville.
* At 10 am Sunday the stage was 6.0 feet.
* Flood stage is 6.0 feet.
* Minor flooding is occurring.
* Forecast, the river will continue to fall.
* At 6.0 feet, the access Road into the River Bluff in Midville begins
to flood. The lower portion of Johnson Road near Herndon also
becomes covered.


Lat... Lon 3279 8231 3286 8227 3284 8211 3281 8193
          3275 8198 3276 8212